Milwaukee, Wisconsin
Traffic Map
Current Weather Conditions
Milwaukee, Wisconsin
Scattered Clouds
Scattered Clouds
19°
Feels Like: 11°
Wind Chill: 11° Ceiling: Unl
Heat Index: 19° Visibility: 10mi
Dew Point: Wind: 6mph
Humidity: 52% Direction: 300° (WNW)
Pressure: 29.99in Gusts: 0mph
Raw Report DataKMKE 122352Z 30005KT 10SM FEW090 SCT250 M07/M16 A2999 RMK AO2 SLP170 T10721156 11061 21072 58006
Traffic Incident Summary
Active as of:
Severity:
Category:
InformationThere was an issue retrieving the traffic information for this location. Please try a different location or try again shortly.
Advertisements